sensor_id;sensor_type;location;lat;lon;timestamp;P1;durP1;ratioP1;P2;durP2;ratioP2
74223;SDS011;62585;49.706;18.216;2022-09-27T00:00:57;13.27;;;8.02;;
74223;SDS011;62585;49.706;18.216;2022-09-27T00:03:32;12.40;;;7.28;;
74223;SDS011;62585;49.706;18.216;2022-09-27T00:06:15;12.10;;;7.43;;
74223;SDS011;62585;49.706;18.216;2022-09-27T00:08:46;13.13;;;7.90;;
74223;SDS011;62585;49.706;18.216;2022-09-27T00:11:28;12.15;;;7.53;;
74223;SDS011;62585;49.706;18.216;2022-09-27T00:13:58;13.05;;;8.18;;
74223;SDS011;62585;49.706;18.216;2022-09-27T00:16:25;11.88;;;6.82;;
74223;SDS011;62585;49.706;18.216;2022-09-27T00:18:57;14.30;;;7.55;;
74223;SDS011;62585;49.706;18.216;2022-09-27T00:21:24;14.30;;;8.27;;
74223;SDS011;62585;49.706;18.216;2022-09-27T00:23:50;13.52;;;7.03;;
74223;SDS011;62585;49.706;18.216;2022-09-27T00:26:16;14.05;;;7.47;;
74223;SDS011;62585;49.706;18.216;2022-09-27T00:28:42;13.48;;;7.88;;
74223;SDS011;62585;49.706;18.216;2022-09-27T00:31:41;13.63;;;7.40;;
74223;SDS011;62585;49.706;18.216;2022-09-27T00:34:02;15.20;;;8.43;;
74223;SDS011;62585;49.706;18.216;2022-09-27T00:36:29;13.55;;;7.88;;
74223;SDS011;62585;49.706;18.216;2022-09-27T00:38:57;19.30;;;8.73;;
74223;SDS011;62585;49.706;18.216;2022-09-27T00:41:28;14.80;;;8.15;;
74223;SDS011;62585;49.706;18.216;2022-09-27T00:44:03;15.43;;;7.63;;
74223;SDS011;62585;49.706;18.216;2022-09-27T00:46:54;12.90;;;8.00;;
74223;SDS011;62585;49.706;18.216;2022-09-27T00:49:26;10.05;;;6.60;;
74223;SDS011;62585;49.706;18.216;2022-09-27T00:51:59;12.63;;;7.45;;
74223;SDS011;62585;49.706;18.216;2022-09-27T00:54:28;10.02;;;6.20;;
74223;SDS011;62585;49.706;18.216;2022-09-27T00:56:57;10.18;;;6.60;;
74223;SDS011;62585;49.706;18.216;2022-09-27T00:59:29;14.15;;;7.38;;
74223;SDS011;62585;49.706;18.216;2022-09-27T01:01:56;11.98;;;7.47;;
74223;SDS011;62585;49.706;18.216;2022-09-27T01:04:27;11.50;;;7.25;;
74223;SDS011;62585;49.706;18.216;2022-09-27T01:06:55;9.85;;;6.70;;
74223;SDS011;62585;49.706;18.216;2022-09-27T01:09:21;11.63;;;7.13;;
74223;SDS011;62585;49.706;18.216;2022-09-27T01:12:04;11.88;;;7.47;;
74223;SDS011;62585;49.706;18.216;2022-09-27T01:17:39;12.52;;;6.95;;
74223;SDS011;62585;49.706;18.216;2022-09-27T01:20:21;16.20;;;8.60;;
74223;SDS011;62585;49.706;18.216;2022-09-27T01:23:17;11.15;;;6.57;;
74223;SDS011;62585;49.706;18.216;2022-09-27T01:31:31;11.52;;;6.40;;
74223;SDS011;62585;49.706;18.216;2022-09-27T01:34:24;11.90;;;8.02;;
74223;SDS011;62585;49.706;18.216;2022-09-27T01:42:48;12.85;;;7.15;;
74223;SDS011;62585;49.706;18.216;2022-09-27T01:48:23;12.50;;;7.55;;
74223;SDS011;62585;49.706;18.216;2022-09-27T01:50:58;11.23;;;7.00;;
74223;SDS011;62585;49.706;18.216;2022-09-27T01:53:28;10.90;;;7.15;;
74223;SDS011;62585;49.706;18.216;2022-09-27T01:55:57;14.70;;;7.28;;
74223;SDS011;62585;49.706;18.216;2022-09-27T01:58:30;12.07;;;7.13;;
74223;SDS011;62585;49.706;18.216;2022-09-27T02:01:11;12.52;;;7.32;;
74223;SDS011;62585;49.706;18.216;2022-09-27T02:03:41;16.48;;;7.75;;
74223;SDS011;62585;49.706;18.216;2022-09-27T02:06:30;11.65;;;7.35;;
74223;SDS011;62585;49.706;18.216;2022-09-27T02:09:03;12.23;;;6.97;;
74223;SDS011;62585;49.706;18.216;2022-09-27T02:11:30;10.55;;;6.53;;
74223;SDS011;62585;49.706;18.216;2022-09-27T02:14:04;11.60;;;6.43;;
74223;SDS011;62585;49.706;18.216;2022-09-27T02:25:22;12.90;;;6.70;;
74223;SDS011;62585;49.706;18.216;2022-09-27T02:30:53;11.07;;;6.03;;
74223;SDS011;62585;49.706;18.216;2022-09-27T02:33:27;12.52;;;6.60;;
74223;SDS011;62585;49.706;18.216;2022-09-27T02:35:55;9.20;;;6.20;;
74223;SDS011;62585;49.706;18.216;2022-09-27T02:38:21;12.38;;;6.20;;
74223;SDS011;62585;49.706;18.216;2022-09-27T02:40:48;11.27;;;6.20;;
74223;SDS011;62585;49.706;18.216;2022-09-27T02:43:15;10.70;;;5.78;;
74223;SDS011;62585;49.706;18.216;2022-09-27T02:57:27;13.80;;;5.90;;
74223;SDS011;62585;49.706;18.216;2022-09-27T03:00:06;10.48;;;6.07;;
74223;SDS011;62585;49.706;18.216;2022-09-27T03:05:44;10.65;;;6.38;;
74223;SDS011;62585;49.706;18.216;2022-09-27T03:10:43;12.88;;;6.25;;
74223;SDS011;62585;49.706;18.216;2022-09-27T03:13:08;11.90;;;6.82;;
74223;SDS011;62585;49.706;18.216;2022-09-27T03:15:35;13.05;;;6.10;;
74223;SDS011;62585;49.706;18.216;2022-09-27T03:18:01;14.15;;;6.65;;
74223;SDS011;62585;49.706;18.216;2022-09-27T03:20:27;14.38;;;6.50;;
74223;SDS011;62585;49.706;18.216;2022-09-27T03:22:54;17.33;;;6.88;;
74223;SDS011;62585;49.706;18.216;2022-09-27T03:25:20;8.57;;;5.78;;
74223;SDS011;62585;49.706;18.216;2022-09-27T03:27:46;9.63;;;5.65;;
74223;SDS011;62585;49.706;18.216;2022-09-27T03:30:13;8.48;;;5.63;;
74223;SDS011;62585;49.706;18.216;2022-09-27T03:32:43;10.13;;;6.10;;
74223;SDS011;62585;49.706;18.216;2022-09-27T03:35:10;10.52;;;6.05;;
74223;SDS011;62585;49.706;18.216;2022-09-27T03:37:37;7.82;;;5.07;;
74223;SDS011;62585;49.706;18.216;2022-09-27T03:40:03;10.00;;;5.68;;
74223;SDS011;62585;49.706;18.216;2022-09-27T03:42:30;8.93;;;6.03;;
74223;SDS011;62585;49.706;18.216;2022-09-27T03:44:56;10.70;;;6.35;;
74223;SDS011;62585;49.706;18.216;2022-09-27T03:47:22;12.73;;;4.97;;
74223;SDS011;62585;49.706;18.216;2022-09-27T03:49:48;11.50;;;5.65;;
74223;SDS011;62585;49.706;18.216;2022-09-27T03:52:14;13.88;;;6.03;;
74223;SDS011;62585;49.706;18.216;2022-09-27T03:54:43;15.13;;;6.72;;
74223;SDS011;62585;49.706;18.216;2022-09-27T03:57:09;10.48;;;5.88;;
74223;SDS011;62585;49.706;18.216;2022-09-27T03:59:35;10.75;;;5.72;;
74223;SDS011;62585;49.706;18.216;2022-09-27T04:02:01;11.73;;;5.55;;
74223;SDS011;62585;49.706;18.216;2022-09-27T04:04:27;17.10;;;7.88;;
74223;SDS011;62585;49.706;18.216;2022-09-27T04:06:53;10.50;;;6.93;;
74223;SDS011;62585;49.706;18.216;2022-09-27T04:09:20;13.48;;;7.78;;
74223;SDS011;62585;49.706;18.216;2022-09-27T04:11:46;18.02;;;9.38;;
74223;SDS011;62585;49.706;18.216;2022-09-27T04:14:12;12.60;;;7.13;;
74223;SDS011;62585;49.706;18.216;2022-09-27T04:16:38;11.05;;;6.60;;
74223;SDS011;62585;49.706;18.216;2022-09-27T04:19:07;11.05;;;6.32;;
74223;SDS011;62585;49.706;18.216;2022-09-27T04:21:33;12.43;;;6.47;;
74223;SDS011;62585;49.706;18.216;2022-09-27T04:23:59;8.63;;;5.82;;
74223;SDS011;62585;49.706;18.216;2022-09-27T04:26:25;10.45;;;5.65;;
74223;SDS011;62585;49.706;18.216;2022-09-27T04:28:52;9.48;;;5.63;;
74223;SDS011;62585;49.706;18.216;2022-09-27T04:31:18;10.98;;;5.50;;
74223;SDS011;62585;49.706;18.216;2022-09-27T04:33:44;10.73;;;5.45;;
74223;SDS011;62585;49.706;18.216;2022-09-27T04:36:14;11.73;;;6.25;;
74223;SDS011;62585;49.706;18.216;2022-09-27T04:38:53;7.30;;;4.95;;
74223;SDS011;62585;49.706;18.216;2022-09-27T04:41:21;8.23;;;5.13;;
74223;SDS011;62585;49.706;18.216;2022-09-27T04:43:48;7.60;;;4.90;;
74223;SDS011;62585;49.706;18.216;2022-09-27T04:46:15;8.07;;;5.43;;
74223;SDS011;62585;49.706;18.216;2022-09-27T04:48:41;10.23;;;5.43;;
74223;SDS011;62585;49.706;18.216;2022-09-27T04:51:08;7.85;;;4.72;;
74223;SDS011;62585;49.706;18.216;2022-09-27T04:53:34;8.57;;;5.32;;
74223;SDS011;62585;49.706;18.216;2022-09-27T04:56:00;8.32;;;5.47;;
74223;SDS011;62585;49.706;18.216;2022-09-27T04:58:30;9.90;;;5.15;;
74223;SDS011;62585;49.706;18.216;2022-09-27T05:00:58;10.13;;;5.35;;
74223;SDS011;62585;49.706;18.216;2022-09-27T05:03:26;13.32;;;6.50;;
74223;SDS011;62585;49.706;18.216;2022-09-27T05:05:52;10.82;;;6.35;;
74223;SDS011;62585;49.706;18.216;2022-09-27T05:08:18;12.00;;;6.65;;
74223;SDS011;62585;49.706;18.216;2022-09-27T05:10:46;11.02;;;6.00;;
74223;SDS011;62585;49.706;18.216;2022-09-27T05:13:12;11.18;;;6.28;;
74223;SDS011;62585;49.706;18.216;2022-09-27T05:15:39;10.38;;;6.10;;
74223;SDS011;62585;49.706;18.216;2022-09-27T05:18:06;15.57;;;7.13;;
74223;SDS011;62585;49.706;18.216;2022-09-27T05:20:33;13.85;;;7.78;;
74223;SDS011;62585;49.706;18.216;2022-09-27T05:25:26;13.02;;;7.90;;
74223;SDS011;62585;49.706;18.216;2022-09-27T05:27:51;12.35;;;7.47;;
74223;SDS011;62585;49.706;18.216;2022-09-27T05:30:17;16.20;;;8.07;;
74223;SDS011;62585;49.706;18.216;2022-09-27T05:32:44;14.23;;;7.82;;
74223;SDS011;62585;49.706;18.216;2022-09-27T05:35:14;15.25;;;8.40;;
74223;SDS011;62585;49.706;18.216;2022-09-27T05:37:43;13.50;;;7.78;;
74223;SDS011;62585;49.706;18.216;2022-09-27T05:40:15;15.73;;;8.82;;
74223;SDS011;62585;49.706;18.216;2022-09-27T05:42:41;16.02;;;9.65;;
74223;SDS011;62585;49.706;18.216;2022-09-27T05:45:07;15.23;;;8.63;;
74223;SDS011;62585;49.706;18.216;2022-09-27T05:47:34;16.70;;;9.45;;
74223;SDS011;62585;49.706;18.216;2022-09-27T05:49:59;14.70;;;8.07;;
74223;SDS011;62585;49.706;18.216;2022-09-27T05:52:25;17.02;;;9.27;;
74223;SDS011;62585;49.706;18.216;2022-09-27T05:54:52;18.42;;;9.20;;
74223;SDS011;62585;49.706;18.216;2022-09-27T05:57:18;18.42;;;8.90;;
74223;SDS011;62585;49.706;18.216;2022-09-27T05:59:44;15.73;;;9.10;;
74223;SDS011;62585;49.706;18.216;2022-09-27T06:02:12;19.08;;;8.90;;
74223;SDS011;62585;49.706;18.216;2022-09-27T06:04:38;17.15;;;9.60;;
74223;SDS011;62585;49.706;18.216;2022-09-27T06:07:07;14.73;;;9.27;;
74223;SDS011;62585;49.706;18.216;2022-09-27T06:09:34;16.30;;;9.68;;
74223;SDS011;62585;49.706;18.216;2022-09-27T06:12:01;17.38;;;9.82;;
74223;SDS011;62585;49.706;18.216;2022-09-27T06:14:27;15.88;;;9.63;;
74223;SDS011;62585;49.706;18.216;2022-09-27T06:16:53;19.90;;;10.50;;
74223;SDS011;62585;49.706;18.216;2022-09-27T06:19:19;19.45;;;9.98;;
74223;SDS011;62585;49.706;18.216;2022-09-27T06:21:48;20.35;;;10.95;;
74223;SDS011;62585;49.706;18.216;2022-09-27T06:24:15;17.52;;;10.27;;
74223;SDS011;62585;49.706;18.216;2022-09-27T06:26:41;16.23;;;9.20;;
74223;SDS011;62585;49.706;18.216;2022-09-27T06:29:07;15.85;;;8.57;;
74223;SDS011;62585;49.706;18.216;2022-09-27T06:31:33;19.17;;;8.45;;
74223;SDS011;62585;49.706;18.216;2022-09-27T06:33:59;14.00;;;8.77;;
74223;SDS011;62585;49.706;18.216;2022-09-27T06:36:25;13.07;;;8.10;;
74223;SDS011;62585;49.706;18.216;2022-09-27T06:38:51;13.20;;;8.48;;
74223;SDS011;62585;49.706;18.216;2022-09-27T06:41:17;13.60;;;8.40;;
74223;SDS011;62585;49.706;18.216;2022-09-27T06:43:42;19.55;;;11.20;;
74223;SDS011;62585;49.706;18.216;2022-09-27T06:48:35;15.27;;;9.68;;
74223;SDS011;62585;49.706;18.216;2022-09-27T06:53:28;22.88;;;10.77;;
74223;SDS011;62585;49.706;18.216;2022-09-27T06:55:58;21.88;;;12.18;;
74223;SDS011;62585;49.706;18.216;2022-09-27T06:58:25;21.65;;;10.05;;
74223;SDS011;62585;49.706;18.216;2022-09-27T07:01:10;18.38;;;10.85;;
74223;SDS011;62585;49.706;18.216;2022-09-27T07:03:36;13.75;;;8.65;;
74223;SDS011;62585;49.706;18.216;2022-09-27T07:06:06;12.93;;;8.02;;
74223;SDS011;62585;49.706;18.216;2022-09-27T07:08:39;10.10;;;7.05;;
74223;SDS011;62585;49.706;18.216;2022-09-27T07:11:06;11.23;;;8.13;;
74223;SDS011;62585;49.706;18.216;2022-09-27T07:13:32;13.32;;;7.82;;
74223;SDS011;62585;49.706;18.216;2022-09-27T07:16:02;11.82;;;7.55;;
74223;SDS011;62585;49.706;18.216;2022-09-27T07:18:28;13.38;;;8.07;;
74223;SDS011;62585;49.706;18.216;2022-09-27T07:20:54;15.02;;;8.25;;
74223;SDS011;62585;49.706;18.216;2022-09-27T07:23:20;10.25;;;7.65;;
74223;SDS011;62585;49.706;18.216;2022-09-27T07:25:46;12.35;;;7.97;;
74223;SDS011;62585;49.706;18.216;2022-09-27T07:28:13;12.43;;;8.32;;
74223;SDS011;62585;49.706;18.216;2022-09-27T07:30:41;14.07;;;8.18;;
74223;SDS011;62585;49.706;18.216;2022-09-27T07:33:07;11.25;;;7.18;;
74223;SDS011;62585;49.706;18.216;2022-09-27T07:35:34;9.90;;;7.22;;
74223;SDS011;62585;49.706;18.216;2022-09-27T07:38:04;11.50;;;7.40;;
74223;SDS011;62585;49.706;18.216;2022-09-27T07:40:33;11.52;;;7.63;;
74223;SDS011;62585;49.706;18.216;2022-09-27T07:43:01;10.38;;;7.70;;
74223;SDS011;62585;49.706;18.216;2022-09-27T07:45:27;11.18;;;7.50;;
74223;SDS011;62585;49.706;18.216;2022-09-27T07:47:53;14.63;;;9.27;;
74223;SDS011;62585;49.706;18.216;2022-09-27T07:50:19;13.77;;;9.30;;
74223;SDS011;62585;49.706;18.216;2022-09-27T07:52:46;14.13;;;9.68;;
74223;SDS011;62585;49.706;18.216;2022-09-27T07:55:16;15.13;;;9.75;;
74223;SDS011;62585;49.706;18.216;2022-09-27T07:57:42;16.23;;;10.20;;
74223;SDS011;62585;49.706;18.216;2022-09-27T08:00:12;14.13;;;9.50;;
74223;SDS011;62585;49.706;18.216;2022-09-27T08:02:40;12.45;;;9.02;;
74223;SDS011;62585;49.706;18.216;2022-09-27T08:07:34;11.07;;;7.25;;
74223;SDS011;62585;49.706;18.216;2022-09-27T08:10:00;12.40;;;7.85;;
74223;SDS011;62585;49.706;18.216;2022-09-27T08:12:26;12.75;;;8.50;;
74223;SDS011;62585;49.706;18.216;2022-09-27T08:14:52;12.02;;;8.80;;
74223;SDS011;62585;49.706;18.216;2022-09-27T08:17:19;12.15;;;8.93;;
74223;SDS011;62585;49.706;18.216;2022-09-27T08:19:44;14.73;;;9.30;;
74223;SDS011;62585;49.706;18.216;2022-09-27T08:22:13;12.55;;;8.65;;
74223;SDS011;62585;49.706;18.216;2022-09-27T08:24:39;14.50;;;8.45;;
74223;SDS011;62585;49.706;18.216;2022-09-27T08:27:05;12.32;;;8.55;;
74223;SDS011;62585;49.706;18.216;2022-09-27T08:31:58;15.95;;;8.23;;
74223;SDS011;62585;49.706;18.216;2022-09-27T08:34:24;12.95;;;8.63;;
74223;SDS011;62585;49.706;18.216;2022-09-27T08:36:52;11.32;;;8.00;;
74223;SDS011;62585;49.706;18.216;2022-09-27T08:47:14;12.55;;;8.63;;
74223;SDS011;62585;49.706;18.216;2022-09-27T08:49:47;13.57;;;8.40;;
74223;SDS011;62585;49.706;18.216;2022-09-27T08:52:19;10.77;;;8.25;;
74223;SDS011;62585;49.706;18.216;2022-09-27T08:54:52;13.27;;;8.70;;
74223;SDS011;62585;49.706;18.216;2022-09-27T08:57:21;11.65;;;8.30;;
74223;SDS011;62585;49.706;18.216;2022-09-27T09:00:07;12.27;;;8.15;;
74223;SDS011;62585;49.706;18.216;2022-09-27T09:02:37;11.82;;;7.60;;
74223;SDS011;62585;49.706;18.216;2022-09-27T09:05:07;13.77;;;8.40;;
74223;SDS011;62585;49.706;18.216;2022-09-27T09:16:30;13.55;;;9.43;;
74223;SDS011;62585;49.706;18.216;2022-09-27T09:19:12;13.15;;;8.88;;
74223;SDS011;62585;49.706;18.216;2022-09-27T09:25:04;13.68;;;8.32;;
74223;SDS011;62585;49.706;18.216;2022-09-27T09:28:06;12.98;;;8.85;;
74223;SDS011;62585;49.706;18.216;2022-09-27T09:33:30;12.27;;;9.10;;
74223;SDS011;62585;49.706;18.216;2022-09-27T09:36:05;12.07;;;7.97;;
74223;SDS011;62585;49.706;18.216;2022-09-27T09:38:53;14.07;;;9.13;;
74223;SDS011;62585;49.706;18.216;2022-09-27T09:41:27;17.75;;;9.45;;
74223;SDS011;62585;49.706;18.216;2022-09-27T09:43:59;12.65;;;8.63;;
74223;SDS011;62585;49.706;18.216;2022-09-27T09:46:36;11.65;;;7.60;;
74223;SDS011;62585;49.706;18.216;2022-09-27T09:51:49;14.85;;;8.27;;
74223;SDS011;62585;49.706;18.216;2022-09-27T09:56:59;13.07;;;8.35;;
74223;SDS011;62585;49.706;18.216;2022-09-27T09:59:34;13.45;;;8.45;;
74223;SDS011;62585;49.706;18.216;2022-09-27T10:02:16;13.63;;;8.02;;
74223;SDS011;62585;49.706;18.216;2022-09-27T10:04:48;13.65;;;8.07;;
74223;SDS011;62585;49.706;18.216;2022-09-27T10:07:15;13.32;;;8.40;;
74223;SDS011;62585;49.706;18.216;2022-09-27T10:09:42;12.23;;;8.80;;
74223;SDS011;62585;49.706;18.216;2022-09-27T10:12:09;13.55;;;9.07;;
74223;SDS011;62585;49.706;18.216;2022-09-27T10:14:35;15.45;;;10.00;;
74223;SDS011;62585;49.706;18.216;2022-09-27T10:17:02;13.25;;;8.77;;
74223;SDS011;62585;49.706;18.216;2022-09-27T10:19:34;14.90;;;8.98;;
74223;SDS011;62585;49.706;18.216;2022-09-27T10:25:12;16.45;;;9.93;;
74223;SDS011;62585;49.706;18.216;2022-09-27T10:27:41;14.43;;;9.43;;
74223;SDS011;62585;49.706;18.216;2022-09-27T10:30:29;12.98;;;9.43;;
74223;SDS011;62585;49.706;18.216;2022-09-27T10:33:18;15.50;;;9.48;;
74223;SDS011;62585;49.706;18.216;2022-09-27T10:35:45;14.20;;;9.23;;
74223;SDS011;62585;49.706;18.216;2022-09-27T10:40:43;16.83;;;10.35;;
74223;SDS011;62585;49.706;18.216;2022-09-27T10:46:31;14.35;;;9.63;;
74223;SDS011;62585;49.706;18.216;2022-09-27T10:51:50;15.52;;;10.48;;
74223;SDS011;62585;49.706;18.216;2022-09-27T10:54:35;17.20;;;10.85;;
74223;SDS011;62585;49.706;18.216;2022-09-27T10:57:05;16.23;;;10.13;;
74223;SDS011;62585;49.706;18.216;2022-09-27T10:59:43;12.35;;;9.38;;
74223;SDS011;62585;49.706;18.216;2022-09-27T11:02:21;14.73;;;9.13;;
74223;SDS011;62585;49.706;18.216;2022-09-27T11:05:04;13.07;;;8.57;;
74223;SDS011;62585;49.706;18.216;2022-09-27T11:07:55;15.98;;;9.65;;
74223;SDS011;62585;49.706;18.216;2022-09-27T11:13:06;14.88;;;9.40;;
74223;SDS011;62585;49.706;18.216;2022-09-27T11:15:41;15.93;;;10.25;;
74223;SDS011;62585;49.706;18.216;2022-09-27T11:20:50;15.02;;;9.07;;
74223;SDS011;62585;49.706;18.216;2022-09-27T11:26:28;16.23;;;9.48;;
74223;SDS011;62585;49.706;18.216;2022-09-27T11:32:14;18.35;;;10.68;;
74223;SDS011;62585;49.706;18.216;2022-09-27T11:40:49;3.17;;;2.30;;
74223;SDS011;62585;49.706;18.216;2022-09-27T11:46:23;4.20;;;2.17;;
74223;SDS011;62585;49.706;18.216;2022-09-27T12:06:10;3.90;;;2.50;;
74223;SDS011;62585;49.706;18.216;2022-09-27T12:14:09;3.35;;;1.75;;
74223;SDS011;62585;49.706;18.216;2022-09-27T12:16:41;2.63;;;1.88;;
74223;SDS011;62585;49.706;18.216;2022-09-27T12:19:14;3.83;;;2.38;;
74223;SDS011;62585;49.706;18.216;2022-09-27T12:21:54;3.38;;;1.80;;
74223;SDS011;62585;49.706;18.216;2022-09-27T12:24:22;3.28;;;2.13;;
74223;SDS011;62585;49.706;18.216;2022-09-27T12:26:50;3.35;;;1.83;;
74223;SDS011;62585;49.706;18.216;2022-09-27T12:29:30;5.47;;;3.38;;
74223;SDS011;62585;49.706;18.216;2022-09-27T12:32:01;6.63;;;2.17;;
74223;SDS011;62585;49.706;18.216;2022-09-27T12:37:22;3.97;;;2.60;;
74223;SDS011;62585;49.706;18.216;2022-09-27T12:47:45;4.28;;;2.20;;
74223;SDS011;62585;49.706;18.216;2022-09-27T12:53:02;4.13;;;2.67;;
74223;SDS011;62585;49.706;18.216;2022-09-27T13:01:33;3.58;;;2.35;;
74223;SDS011;62585;49.706;18.216;2022-09-27T13:12:21;4.38;;;2.75;;
74223;SDS011;62585;49.706;18.216;2022-09-27T13:17:30;3.80;;;2.50;;
74223;SDS011;62585;49.706;18.216;2022-09-27T13:22:53;5.32;;;2.67;;
74223;SDS011;62585;49.706;18.216;2022-09-27T13:31:01;4.95;;;3.55;;
74223;SDS011;62585;49.706;18.216;2022-09-27T13:36:15;5.03;;;3.03;;
74223;SDS011;62585;49.706;18.216;2022-09-27T13:50:19;13.52;;;6.90;;
74223;SDS011;62585;49.706;18.216;2022-09-27T13:53:33;12.98;;;5.93;;
74223;SDS011;62585;49.706;18.216;2022-09-27T14:03:33;8.52;;;4.18;;
74223;SDS011;62585;49.706;18.216;2022-09-27T14:06:03;9.15;;;4.75;;
74223;SDS011;62585;49.706;18.216;2022-09-27T14:08:32;10.38;;;5.00;;
74223;SDS011;62585;49.706;18.216;2022-09-27T14:11:02;9.25;;;3.90;;
74223;SDS011;62585;49.706;18.216;2022-09-27T14:13:35;11.25;;;5.28;;
74223;SDS011;62585;49.706;18.216;2022-09-27T14:16:03;8.38;;;3.88;;
74223;SDS011;62585;49.706;18.216;2022-09-27T14:18:30;8.18;;;4.00;;
74223;SDS011;62585;49.706;18.216;2022-09-27T14:21:40;7.05;;;3.67;;
74223;SDS011;62585;49.706;18.216;2022-09-27T14:24:19;5.97;;;2.92;;
74223;SDS011;62585;49.706;18.216;2022-09-27T14:26:48;6.97;;;2.95;;
74223;SDS011;62585;49.706;18.216;2022-09-27T14:29:30;8.35;;;3.92;;
74223;SDS011;62585;49.706;18.216;2022-09-27T14:32:02;7.90;;;4.28;;
74223;SDS011;62585;49.706;18.216;2022-09-27T14:34:34;8.68;;;4.45;;
74223;SDS011;62585;49.706;18.216;2022-09-27T14:37:00;7.32;;;3.78;;
74223;SDS011;62585;49.706;18.216;2022-09-27T14:39:45;8.93;;;4.10;;
74223;SDS011;62585;49.706;18.216;2022-09-27T14:42:19;10.20;;;4.18;;
74223;SDS011;62585;49.706;18.216;2022-09-27T14:44:47;6.45;;;3.50;;
74223;SDS011;62585;49.706;18.216;2022-09-27T14:50:06;9.50;;;4.47;;
74223;SDS011;62585;49.706;18.216;2022-09-27T14:52:42;8.68;;;5.22;;
74223;SDS011;62585;49.706;18.216;2022-09-27T14:55:11;9.73;;;4.35;;
74223;SDS011;62585;49.706;18.216;2022-09-27T14:57:44;8.15;;;3.72;;
74223;SDS011;62585;49.706;18.216;2022-09-27T15:00:17;8.05;;;3.67;;
74223;SDS011;62585;49.706;18.216;2022-09-27T15:02:45;9.05;;;4.85;;
74223;SDS011;62585;49.706;18.216;2022-09-27T15:05:15;7.88;;;4.28;;
74223;SDS011;62585;49.706;18.216;2022-09-27T15:07:44;8.38;;;5.35;;
74223;SDS011;62585;49.706;18.216;2022-09-27T15:10:29;9.15;;;4.63;;
74223;SDS011;62585;49.706;18.216;2022-09-27T15:13:00;9.88;;;4.75;;
74223;SDS011;62585;49.706;18.216;2022-09-27T15:15:34;9.77;;;5.18;;
74223;SDS011;62585;49.706;18.216;2022-09-27T15:18:27;9.43;;;4.82;;
74223;SDS011;62585;49.706;18.216;2022-09-27T15:20:56;10.73;;;6.18;;
74223;SDS011;62585;49.706;18.216;2022-09-27T15:23:28;12.38;;;5.65;;
74223;SDS011;62585;49.706;18.216;2022-09-27T15:26:36;9.43;;;4.70;;
74223;SDS011;62585;49.706;18.216;2022-09-27T15:29:02;20.65;;;11.10;;
74223;SDS011;62585;49.706;18.216;2022-09-27T15:31:35;28.95;;;15.77;;
74223;SDS011;62585;49.706;18.216;2022-09-27T15:34:06;17.63;;;11.15;;
74223;SDS011;62585;49.706;18.216;2022-09-27T15:36:51;10.93;;;7.00;;
74223;SDS011;62585;49.706;18.216;2022-09-27T15:39:34;16.65;;;9.35;;
74223;SDS011;62585;49.706;18.216;2022-09-27T15:42:09;15.90;;;8.18;;
74223;SDS011;62585;49.706;18.216;2022-09-27T15:44:49;13.20;;;7.00;;
74223;SDS011;62585;49.706;18.216;2022-09-27T15:52:43;12.75;;;6.88;;
74223;SDS011;62585;49.706;18.216;2022-09-27T15:55:20;18.25;;;8.63;;
74223;SDS011;62585;49.706;18.216;2022-09-27T15:57:54;10.05;;;6.40;;
74223;SDS011;62585;49.706;18.216;2022-09-27T16:00:28;9.93;;;5.95;;
74223;SDS011;62585;49.706;18.216;2022-09-27T16:02:56;9.52;;;5.65;;
74223;SDS011;62585;49.706;18.216;2022-09-27T16:05:26;10.88;;;6.05;;
74223;SDS011;62585;49.706;18.216;2022-09-27T16:07:56;9.73;;;5.75;;
74223;SDS011;62585;49.706;18.216;2022-09-27T16:10:29;11.10;;;6.32;;
74223;SDS011;62585;49.706;18.216;2022-09-27T16:13:04;8.48;;;5.38;;
74223;SDS011;62585;49.706;18.216;2022-09-27T16:15:36;9.88;;;5.63;;
74223;SDS011;62585;49.706;18.216;2022-09-27T16:18:04;12.95;;;7.07;;
74223;SDS011;62585;49.706;18.216;2022-09-27T16:20:31;16.30;;;7.93;;
74223;SDS011;62585;49.706;18.216;2022-09-27T16:22:58;13.05;;;7.20;;
74223;SDS011;62585;49.706;18.216;2022-09-27T16:25:26;13.98;;;7.35;;
74223;SDS011;62585;49.706;18.216;2022-09-27T16:27:57;10.15;;;6.60;;
74223;SDS011;62585;49.706;18.216;2022-09-27T16:30:27;14.32;;;8.55;;
74223;SDS011;62585;49.706;18.216;2022-09-27T16:32:56;14.38;;;8.23;;
74223;SDS011;62585;49.706;18.216;2022-09-27T16:35:25;13.20;;;8.27;;
74223;SDS011;62585;49.706;18.216;2022-09-27T16:37:53;12.45;;;7.78;;
74223;SDS011;62585;49.706;18.216;2022-09-27T16:40:19;12.75;;;7.40;;
74223;SDS011;62585;49.706;18.216;2022-09-27T16:42:49;12.68;;;7.07;;
74223;SDS011;62585;49.706;18.216;2022-09-27T16:45:15;10.85;;;7.25;;
74223;SDS011;62585;49.706;18.216;2022-09-27T16:47:42;10.43;;;6.63;;
74223;SDS011;62585;49.706;18.216;2022-09-27T16:50:09;9.25;;;5.65;;
74223;SDS011;62585;49.706;18.216;2022-09-27T16:52:56;8.13;;;5.55;;
74223;SDS011;62585;49.706;18.216;2022-09-27T16:55:24;7.47;;;4.95;;
74223;SDS011;62585;49.706;18.216;2022-09-27T16:57:53;14.63;;;9.98;;
74223;SDS011;62585;49.706;18.216;2022-09-27T17:00:19;15.85;;;10.18;;
74223;SDS011;62585;49.706;18.216;2022-09-27T17:02:45;17.90;;;12.02;;
74223;SDS011;62585;49.706;18.216;2022-09-27T17:05:12;10.30;;;5.13;;
74223;SDS011;62585;49.706;18.216;2022-09-27T17:07:39;12.10;;;7.20;;
74223;SDS011;62585;49.706;18.216;2022-09-27T17:10:05;13.32;;;6.95;;
74223;SDS011;62585;49.706;18.216;2022-09-27T17:12:32;10.20;;;6.03;;
74223;SDS011;62585;49.706;18.216;2022-09-27T17:14:59;9.50;;;5.97;;
74223;SDS011;62585;49.706;18.216;2022-09-27T17:17:25;9.10;;;5.95;;
74223;SDS011;62585;49.706;18.216;2022-09-27T17:19:51;11.10;;;6.22;;
74223;SDS011;62585;49.706;18.216;2022-09-27T17:22:17;9.55;;;6.63;;
74223;SDS011;62585;49.706;18.216;2022-09-27T17:24:43;9.88;;;6.65;;
74223;SDS011;62585;49.706;18.216;2022-09-27T17:27:09;12.13;;;7.38;;
74223;SDS011;62585;49.706;18.216;2022-09-27T17:29:35;13.00;;;8.13;;
74223;SDS011;62585;49.706;18.216;2022-09-27T17:32:03;18.20;;;9.13;;
74223;SDS011;62585;49.706;18.216;2022-09-27T17:34:32;17.83;;;9.90;;
74223;SDS011;62585;49.706;18.216;2022-09-27T17:36:59;17.95;;;9.82;;
74223;SDS011;62585;49.706;18.216;2022-09-27T17:39:25;17.27;;;9.32;;
74223;SDS011;62585;49.706;18.216;2022-09-27T17:41:51;9.57;;;4.97;;
74223;SDS011;62585;49.706;18.216;2022-09-27T17:44:18;7.40;;;4.97;;
74223;SDS011;62585;49.706;18.216;2022-09-27T17:46:44;7.82;;;4.50;;
74223;SDS011;62585;49.706;18.216;2022-09-27T17:49:12;7.95;;;4.63;;
74223;SDS011;62585;49.706;18.216;2022-09-27T17:51:57;9.00;;;4.80;;
74223;SDS011;62585;49.706;18.216;2022-09-27T17:54:24;8.27;;;5.35;;
74223;SDS011;62585;49.706;18.216;2022-09-27T17:56:52;16.33;;;8.70;;
74223;SDS011;62585;49.706;18.216;2022-09-27T17:59:20;27.27;;;13.65;;
74223;SDS011;62585;49.706;18.216;2022-09-27T18:01:47;21.05;;;12.38;;
74223;SDS011;62585;49.706;18.216;2022-09-27T18:04:14;15.35;;;9.25;;
74223;SDS011;62585;49.706;18.216;2022-09-27T18:06:43;15.95;;;10.05;;
74223;SDS011;62585;49.706;18.216;2022-09-27T18:09:11;23.65;;;13.27;;
74223;SDS011;62585;49.706;18.216;2022-09-27T18:11:38;20.23;;;11.45;;
74223;SDS011;62585;49.706;18.216;2022-09-27T18:14:05;16.75;;;8.70;;